Pearl Of Scandinavia — OWFU2 — position and weather

sailwx.info

Track history (hours):
 
Tides and Currents Weather Stations Pressure Air Temp Water Temp Dewpoint Dewpoint Depression Visibility Wind Speed Wind Dir Waves Ship Positions

Pearl Of Scandinavia

Last reported at 2018-Jul-22 06:30 UTC. Time now 2018-Jul-22 06:55 UTC.
Position N 59°41' E 010°36'.

Length 176.4 m; beam 34 m; draft 6.215 m.

Type: Ship. MMSI: 219945000.

Date/timePositionNaut miles runAvg speedWind from/ knotsBaromVisibWave heightAir tempDewpointWater temp
2018-Jul-22 06:30N 59°41' E 010°36'713.9
2018-Jul-22 06:00N 59°35' E 010°38'815.5
2018-Jul-22 05:30N 59°27' E 010°34'815.4
2018-Jul-22 05:00N 59°19' E 010°36'816.2
2018-Jul-22 04:30N 59°11' E 010°39'816.4
2018-Jul-22 04:00N 59°03' E 010°41'815.9
2018-Jul-22 03:30N 58°56' E 010°44'815.9
2018-Jul-22 03:00N 58°48' E 010°46'816.1
2018-Jul-22 02:30N 58°40' E 010°49'816.4
2018-Jul-22 02:00N 58°32' E 010°53'816.4
2018-Jul-22 01:29N 58°24' E 010°58'916.4
2018-Jul-22 00:57N 58°15' E 011°03'1316.8
2018-Jul-22 00:12N 58°04' E 011°12'316.4
2018-Jul-22 00:00N 58°01' E 011°14'816.2
2018-Jul-21 23:30N 57°53' E 011°18'816.2
2018-Jul-21 23:00N 57°45' E 011°22'815.3
2018-Jul-21 22:30N 57°38' E 011°27'816.5
2018-Jul-21 22:00N 57°30' E 011°33'816.6
2018-Jul-21 21:30N 57°23' E 011°41'816.8
2018-Jul-21 21:00N 57°16' E 011°49'917.0
2018-Jul-21 20:30N 57°09' E 011°57'6316.7
2018-Jul-21 16:43N 56°08' E 012°32'416.7
2018-Jul-21 16:30N 56°05' E 012°36'815.9
2018-Jul-21 16:00N 55°58' E 012°42'815.3
2018-Jul-21 15:30N 55°51' E 012°44'714.6
2018-Jul-21 15:00N 55°44' E 012°40'3 5.6
2018-Jul-21 14:30N 55°42' E 012°36'0 0.0
2018-Jul-21 13:30N 55°42' E 012°36'0 0.0
2018-Jul-21 13:00N 55°42' E 012°36'0 0.0
2018-Jul-21 12:27N 55°42' E 012°36'0 0.0
2018-Jul-21 11:54N 55°42' E 012°36'0 0.0
2018-Jul-21 11:30N 55°42' E 012°36'0 0.0
2018-Jul-21 10:57N 55°42' E 012°36'0 0.0
2018-Jul-21 10:27N 55°42' E 012°36'0 0.0
2018-Jul-21 09:51N 55°42' E 012°36'0 0.0
2018-Jul-21 09:30N 55°42' E 012°36'0 0.0
2018-Jul-21 08:54N 55°42' E 012°36'0 0.0
2018-Jul-21 08:30N 55°42' E 012°36'0 0.0
2018-Jul-21 08:00N 55°42' E 012°36'0 0.7
2018-Jul-21 07:31N 55°42' E 012°36'612.2
2018-Jul-21 07:00N 55°48' E 012°42'815.3
2018-Jul-21 06:30N 55°55' E 012°39'815.8
2018-Jul-21 06:00N 56°03' E 012°39'816.3
2018-Jul-21 05:30N 56°09' E 012°29'6616.7
2018-Jul-21 01:34N 57°12' E 011°54'117.5
2018-Jul-21 01:29N 57°14' E 011°53'817.5
2018-Jul-21 01:00N 57°20' E 011°45'917.3
2018-Jul-21 00:31N 57°28' E 011°36'916.9
2018-Jul-21 00:00N 57°35' E 011°29'917.8
2018-Jul-20 23:30N 57°44' E 011°23'917.4
2018-Jul-20 23:00N 57°52' E 011°17'816.0
2018-Jul-20 22:30N 57°59' E 011°11'815.1
2018-Jul-20 22:00N 58°06' E 011°07'714.9
2018-Jul-20 21:30N 58°14' E 011°03'714.8
2018-Jul-20 21:00N 58°21' E 010°59'714.9
2018-Jul-20 20:30N 58°28' E 010°55'714.7
2018-Jul-20 20:00N 58°35' E 010°51'714.7
2018-Jul-20 19:30N 58°42' E 010°47'815.4
2018-Jul-20 19:00N 58°50' E 010°45'815.7
2018-Jul-20 18:30N 58°57' E 010°42'815.9
2018-Jul-20 18:00N 59°05' E 010°40'815.6
2018-Jul-20 17:30N 59°13' E 010°37'815.6
2018-Jul-20 17:00N 59°20' E 010°35'714.5
2018-Jul-20 16:31N 59°28' E 010°34'815.4
2018-Jul-20 16:01N 59°35' E 010°38'714.3
2018-Jul-20 15:30N 59°42' E 010°35'715.1
2018-Jul-20 15:00N 59°50' E 010°34'713.3
2018-Jul-20 14:30N 59°54' E 010°44'0 0.3
2018-Jul-20 14:00N 59°54' E 010°45'0 0.0
2018-Jul-20 13:30N 59°54' E 010°45'0 0.0
2018-Jul-20 13:00N 59°54' E 010°45'0 0.0
2018-Jul-20 12:30N 59°54' E 010°45'0 0.0
2018-Jul-20 12:00N 59°54' E 010°45'0 0.0
2018-Jul-20 11:30N 59°54' E 010°45'0 0.0
2018-Jul-20 11:00N 59°54' E 010°45'0 0.0
2018-Jul-20 10:30N 59°54' E 010°45'0 0.0
2018-Jul-20 10:00N 59°54' E 010°45'0 0.0
2018-Jul-20 09:30N 59°54' E 010°45'0 0.0
2018-Jul-20 09:00N 59°54' E 010°45'0 0.0
2018-Jul-20 08:30N 59°54' E 010°45'0 0.0
2018-Jul-20 08:00N 59°54' E 010°45'0 0.8
2018-Jul-20 07:30N 59°54' E 010°44'714.1
2018-Jul-20 07:00N 59°49' E 010°35'714.6
2018-Jul-20 06:30N 59°41' E 010°36'714.2
2018-Jul-20 06:01N 59°34' E 010°38'815.4
2018-Jul-20 05:30N 59°27' E 010°34'815.8
2018-Jul-20 05:01N 59°19' E 010°36'816.0
2018-Jul-20 04:31N 59°11' E 010°39'816.1
2018-Jul-20 04:00N 59°03' E 010°41'815.6
2018-Jul-20 03:31N 58°56' E 010°43'815.3
2018-Jul-20 03:00N 58°48' E 010°47'815.7
2018-Jul-20 02:30N 58°40' E 010°50'816.2
2018-Jul-20 02:01N 58°33' E 010°53'816.6
2018-Jul-20 01:31N 58°25' E 010°57'816.3
2018-Jul-20 01:00N 58°17' E 011°02'816.7
2018-Jul-20 00:30N 58°09' E 011°07'917.5
2018-Jul-20 00:00N 58°00' E 011°12'817.0
2018-Jul-19 23:31N 57°52' E 011°17'816.0
2018-Jul-19 23:01N 57°45' E 011°22'816.1
2018-Jul-19 22:31N 57°38' E 011°29'816.6
2018-Jul-19 22:01N 57°30' E 011°36'816.1
2018-Jul-19 21:31N 57°23' E 011°42'816.2
2018-Jul-19 21:01N 57°16' E 011°50'816.1
2018-Jul-19 20:30N 57°09' E 011°56'916.4
2018-Jul-19 19:57N 57°00' E 012°03'916.3
2018-Jul-19 19:25N 56°52' E 012°09'916.3
2018-Jul-19 18:51N 56°44' E 012°15'716.3
2018-Jul-19 18:27N 56°37' E 012°18'716.0
2018-Jul-19 17:59N 56°30' E 012°19'816.1
2018-Jul-19 17:29N 56°22' E 012°23'815.8
2018-Jul-19 16:59N 56°15' E 012°26'815.8
2018-Jul-19 16:28N 56°07' E 012°33'715.1
2018-Jul-19 16:01N 56°01' E 012°40'714.8
2018-Jul-19 15:30N 55°54' E 012°44'714.5
2018-Jul-19 15:01N 55°47' E 012°42'612.2
2018-Jul-19 14:30N 55°42' E 012°36'0 0.2
2018-Jul-19 13:27N 55°42' E 012°36'0 0.0
2018-Jul-19 13:00N 55°42' E 012°36'0 0.0
2018-Jul-19 12:30N 55°42' E 012°36'0 0.0
2018-Jul-19 12:00N 55°42' E 012°36'0 0.0
2018-Jul-19 11:30N 55°42' E 012°36'0 0.0
2018-Jul-19 11:00N 55°42' E 012°36'0 0.0
2018-Jul-19 10:30N 55°42' E 012°36'0 0.0
2018-Jul-19 10:00N 55°42' E 012°36'0 0.0
2018-Jul-19 09:30N 55°42' E 012°36'0 0.0
2018-Jul-19 09:00N 55°42' E 012°36'0 0.0
2018-Jul-19 08:30N 55°42' E 012°36'0 0.0
2018-Jul-19 08:00N 55°42' E 012°36'0 0.6
2018-Jul-19 07:30N 55°42' E 012°36'612.2
2018-Jul-19 07:00N 55°48' E 012°42'815.1
2018-Jul-19 06:30N 55°55' E 012°39'815.7
2018-Jul-19 06:00N 56°03' E 012°39'816.3
2018-Jul-19 05:30N 56°09' E 012°30'6816.5
2018-Jul-19 01:22N 57°14' E 011°51'616.9
2018-Jul-19 01:00N 57°19' E 011°45'917.1
2018-Jul-19 00:30N 57°26' E 011°36'816.8
2018-Jul-19 00:00N 57°34' E 011°29'917.2
2018-Jul-18 23:31N 57°42' E 011°24'917.4
2018-Jul-18 23:00N 57°50' E 011°18'816.7
2018-Jul-18 22:30N 57°58' E 011°12'816.2
2018-Jul-18 22:00N 58°05' E 011°08'815.7
2018-Jul-18 21:30N 58°13' E 011°04'815.7
2018-Jul-18 21:00N 58°20' E 010°59'815.9
2018-Jul-18 20:30N 58°28' E 010°55'816.0
2018-Jul-18 20:00N 58°36' E 010°51'816.0
2018-Jul-18 19:31N 58°43' E 010°47'816.3
2018-Jul-18 19:00N 58°52' E 010°44'816.5
2018-Jul-18 18:30N 58°60' E 010°42'815.8
2018-Jul-18 18:00N 59°07' E 010°39'815.7
2018-Jul-18 17:30N 59°15' E 010°37'816.1
2018-Jul-18 17:01N 59°23' E 010°34'816.0
2018-Jul-18 16:30N 59°31' E 010°35'815.6
2018-Jul-18 16:00N 59°39' E 010°37'714.1
2018-Jul-18 15:30N 59°46' E 010°33'815.5
2018-Jul-18 15:01N 59°53' E 010°39'3 6.1
2018-Jul-18 14:29N 59°54' E 010°45'0 0.0
2018-Jul-18 13:29N 59°54' E 010°45'0 0.0
2018-Jul-18 12:59N 59°54' E 010°45'0 0.0
2018-Jul-18 12:29N 59°54' E 010°45'0 0.0
2018-Jul-18 11:59N 59°54' E 010°45'0 0.0
2018-Jul-18 11:29N 59°54' E 010°45'0 0.0
2018-Jul-18 10:29N 59°54' E 010°45'0 0.0
2018-Jul-18 09:59N 59°54' E 010°45'0 0.0
2018-Jul-18 09:29N 59°54' E 010°45'0 0.0
2018-Jul-18 08:59N 59°54' E 010°45'0 0.0
2018-Jul-18 08:29N 59°54' E 010°45'0 0.0
2018-Jul-18 07:59N 59°54' E 010°45'0 0.8
2018-Jul-18 07:30N 59°54' E 010°44'713.8
2018-Jul-18 07:00N 59°49' E 010°35'714.7
2018-Jul-18 06:30N 59°42' E 010°36'714.6
2018-Jul-18 06:00N 59°34' E 010°38'816.1
2018-Jul-18 05:30N 59°27' E 010°34'816.5
2018-Jul-18 05:00N 59°19' E 010°37'816.5
2018-Jul-18 04:30N 59°10' E 010°40'816.5
2018-Jul-18 04:00N 59°02' E 010°40'816.5
2018-Jul-18 03:30N 58°54' E 010°40'816.3
2018-Jul-18 03:00N 58°46' E 010°45'816.6
2018-Jul-18 02:31N 58°38' E 010°48'816.5
2018-Jul-18 02:00N 58°30' E 010°53'816.8
2018-Jul-18 01:30N 58°22' E 010°58'917.4
2018-Jul-18 01:00N 58°14' E 011°03'917.8
2018-Jul-18 00:30N 58°06' E 011°08'918.1
2018-Jul-18 00:01N 57°57' E 011°14'917.2
2018-Jul-17 23:30N 57°49' E 011°19'816.3
2018-Jul-17 23:00N 57°41' E 011°25'816.4
2018-Jul-17 22:30N 57°34' E 011°30'816.2
2018-Jul-17 22:00N 57°26' E 011°37'816.3
2018-Jul-17 21:30N 57°19' E 011°45'815.9
2018-Jul-17 21:01N 57°13' E 011°52'815.9
2018-Jul-17 20:31N 57°05' E 011°59'816.1
2018-Jul-17 20:01N 56°58' E 012°05'815.9
2018-Jul-17 19:31N 56°50' E 012°08'4515.9
2018-Jul-17 16:41N 56°07' E 012°33'317.7
2018-Jul-17 16:30N 56°05' E 012°36'815.8
2018-Jul-17 16:01N 55°58' E 012°42'815.5
2018-Jul-17 15:30N 55°50' E 012°44'714.4
2018-Jul-17 15:00N 55°44' E 012°39'2 4.7
2018-Jul-17 14:30N 55°42' E 012°36'0 0.0
2018-Jul-17 14:00N 55°42' E 012°36'0 0.0
2018-Jul-17 13:29N 55°42' E 012°36'0 0.0
2018-Jul-17 12:59N 55°42' E 012°36'0 0.0
2018-Jul-17 12:29N 55°42' E 012°36'0 0.0
2018-Jul-17 11:53N 55°42' E 012°36'0 0.0
2018-Jul-17 11:29N 55°42' E 012°36'0 0.0
2018-Jul-17 10:59N 55°42' E 012°36'0 0.0
2018-Jul-17 10:29N 55°42' E 012°36'0 0.0
2018-Jul-17 09:59N 55°42' E 012°36'0 0.0
2018-Jul-17 09:29N 55°42' E 012°36'0 0.0
2018-Jul-17 08:59N 55°42' E 012°36'0 0.0
2018-Jul-17 08:29N 55°42' E 012°36'0 0.0
2018-Jul-17 07:59N 55°42' E 012°36'0 0.7
2018-Jul-17 07:30N 55°42' E 012°36'612.1
2018-Jul-17 07:00N 55°48' E 012°42'815.2
2018-Jul-17 06:30N 55°55' E 012°39'815.2
2018-Jul-17 06:00N 56°03' E 012°39'714.5
2018-Jul-17 05:30N 56°08' E 012°30'815.4
2018-Jul-17 05:00N 56°15' E 012°25'815.3
2018-Jul-17 04:30N 56°22' E 012°20'815.7
2018-Jul-17 04:00N 56°30' E 012°16'816.2
2018-Jul-17 03:30N 56°37' E 012°11'816.3
2018-Jul-17 03:00N 56°45' E 012°08'816.4
2018-Jul-17 02:30N 56°53' E 012°03'816.6
2018-Jul-17 02:00N 57°01' E 011°59'816.6
2018-Jul-17 01:30N 57°09' E 011°54'816.6
2018-Jul-17 01:00N 57°17' E 011°49'816.5
2018-Jul-17 00:30N 57°24' E 011°42'1717.3
2018-Jul-16 23:30N 57°40' E 011°27'918.2
2018-Jul-16 23:00N 57°48' E 011°20'917.6
2018-Jul-16 22:30N 57°56' E 011°13'917.0
2018-Jul-16 22:00N 58°04' E 011°08'816.4
2018-Jul-16 21:30N 58°12' E 011°03'816.5
2018-Jul-16 21:00N 58°19' E 010°58'816.5
2018-Jul-16 20:30N 58°27' E 010°54'816.3
2018-Jul-16 20:00N 58°35' E 010°50'816.4
2018-Jul-16 19:30N 58°43' E 010°47'816.7
2018-Jul-16 19:00N 58°51' E 010°44'917.1
2018-Jul-16 18:30N 58°60' E 010°42'917.1
2018-Jul-16 18:00N 59°08' E 010°39'917.1
2018-Jul-16 17:30N 59°17' E 010°36'816.6
2018-Jul-16 17:00N 59°25' E 010°33'816.7
2018-Jul-16 16:30N 59°33' E 010°37'815.2
2018-Jul-16 16:01N 59°41' E 010°37'815.1
2018-Jul-16 15:31N 59°48' E 010°34'714.9
2018-Jul-16 15:00N 59°54' E 010°43'1 2.1
2018-Jul-16 14:30N 59°54' E 010°45'0 0.0
2018-Jul-16 14:00N 59°54' E 010°45'0 0.0
2018-Jul-16 13:30N 59°54' E 010°45'0 0.0
2018-Jul-16 13:00N 59°54' E 010°45'0 0.0
2018-Jul-16 12:30N 59°54' E 010°45'0 0.0
2018-Jul-16 12:00N 59°54' E 010°45'0 0.0
2018-Jul-16 11:30N 59°54' E 010°45'0 0.0
2018-Jul-16 11:00N 59°54' E 010°45'0 0.0
2018-Jul-16 10:30N 59°54' E 010°45'0 0.0
2018-Jul-16 10:00N 59°54' E 010°45'0 0.0
2018-Jul-16 09:30N 59°54' E 010°45'0 0.0
2018-Jul-16 09:00N 59°54' E 010°45'0 0.0
2018-Jul-16 08:30N 59°54' E 010°45'0 0.0
2018-Jul-16 08:00N 59°54' E 010°45'0 0.6
2018-Jul-16 07:30N 59°54' E 010°44'713.6
2018-Jul-16 07:00N 59°49' E 010°35'714.9
2018-Jul-16 06:30N 59°42' E 010°36'714.6
2018-Jul-16 06:00N 59°34' E 010°38'815.7
2018-Jul-16 05:30N 59°27' E 010°34'815.8
2018-Jul-16 05:00N 59°19' E 010°36'816.7
2018-Jul-16 04:30N 59°11' E 010°39'816.6
2018-Jul-16 04:00N 59°03' E 010°39'816.7
2018-Jul-16 03:30N 58°54' E 010°38'917.0
2018-Jul-16 03:00N 58°46' E 010°37'917.2
2018-Jul-16 02:30N 58°37' E 010°39'816.9
2018-Jul-16 02:00N 58°29' E 010°40'917.3
2018-Jul-16 01:30N 58°20' E 010°44'917.2
2018-Jul-16 01:00N 58°12' E 010°50'816.9
2018-Jul-16 00:30N 58°04' E 010°55'917.2
2018-Jul-16 00:00N 57°56' E 011°01'816.4
2018-Jul-15 23:30N 57°49' E 011°06'815.9
2018-Jul-15 23:00N 57°41' E 011°12'816.5
2018-Jul-15 22:30N 57°34' E 011°20'816.5
2018-Jul-15 22:00N 57°28' E 011°29'816.4
2018-Jul-15 21:30N 57°20' E 011°33'816.2
2018-Jul-15 21:00N 57°12' E 011°38'816.2
2018-Jul-15 20:30N 57°05' E 011°43'816.3
2018-Jul-15 20:00N 56°57' E 011°48'915.9
2018-Jul-15 19:27N 56°49' E 011°55'715.4
2018-Jul-15 19:00N 56°43' E 012°02'815.5
2018-Jul-15 18:30N 56°36' E 012°10'815.8
2018-Jul-15 17:59N 56°29' E 012°16'815.8
2018-Jul-15 17:29N 56°22' E 012°21'1615.6
2018-Jul-15 16:29N 56°07' E 012°33'715.2
2018-Jul-15 16:00N 56°02' E 012°40'815.2
2018-Jul-15 15:30N 55°54' E 012°44'714.7
2018-Jul-15 15:00N 55°47' E 012°42'611.6
2018-Jul-15 14:31N 55°42' E 012°36'0 0.6
2018-Jul-15 14:01N 55°42' E 012°36'0 0.0
2018-Jul-15 13:27N 55°42' E 012°36'0 0.0
2018-Jul-15 12:57N 55°42' E 012°36'0 0.0
2018-Jul-15 12:27N 55°42' E 012°36'0 0.0
2018-Jul-15 11:57N 55°42' E 012°36'0 0.0
2018-Jul-15 11:27N 55°42' E 012°36'0 0.0
2018-Jul-15 10:57N 55°42' E 012°36'0 0.0
2018-Jul-15 10:27N 55°42' E 012°36'0 0.0
2018-Jul-15 09:57N 55°42' E 012°36'0 0.0
2018-Jul-15 09:27N 55°42' E 012°36'0 0.0
2018-Jul-15 08:57N 55°42' E 012°36'0 0.0
2018-Jul-15 08:27N 55°42' E 012°36'0 0.0
2018-Jul-15 07:57N 55°42' E 012°36'0 0.7
2018-Jul-15 07:31N 55°42' E 012°36'611.7
2018-Jul-15 07:00N 55°47' E 012°42'815.2
2018-Jul-15 06:30N 55°55' E 012°39'815.6
2018-Jul-15 06:00N 56°02' E 012°39'714.6
2018-Jul-15 05:30N 56°08' E 012°30'1115.7
2018-Jul-15 04:49N 56°18' E 012°23'616.1
2018-Jul-15 04:28N 56°23' E 012°20'5516.6
2018-Jul-15 01:08N 57°16' E 011°49'216.6
2018-Jul-15 01:00N 57°18' E 011°47'816.9
2018-Jul-15 00:30N 57°25' E 011°40'917.3
2018-Jul-15 00:00N 57°32' E 011°32'917.0
2018-Jul-14 23:30N 57°40' E 011°25'816.9
2018-Jul-14 23:00N 57°48' E 011°19'816.4
2018-Jul-14 22:30N 57°56' E 011°13'815.6
2018-Jul-14 22:00N 58°03' E 011°09'815.1
2018-Jul-14 21:30N 58°10' E 011°04'815.6
2018-Jul-14 21:00N 58°18' E 010°60'814.9
2018-Jul-14 20:30N 58°25' E 010°57'815.1
2018-Jul-14 20:00N 58°32' E 010°53'815.3
2018-Jul-14 19:30N 58°39' E 010°49'815.6
2018-Jul-14 19:00N 58°47' E 010°46'816.2
2018-Jul-14 18:30N 58°55' E 010°43'816.7
2018-Jul-14 18:00N 59°03' E 010°40'816.4
2018-Jul-14 17:30N 59°11' E 010°38'816.1
2018-Jul-14 17:00N 59°19' E 010°35'815.6
2018-Jul-14 16:30N 59°27' E 010°33'815.9
2018-Jul-14 16:00N 59°35' E 010°38'714.3
2018-Jul-14 15:30N 59°42' E 010°35'714.9
2018-Jul-14 15:00N 59°49' E 010°34'714.0
2018-Jul-14 14:31N 59°54' E 010°44'0 0.3
2018-Jul-14 13:29N 59°54' E 010°45'0 0.0
2018-Jul-14 12:59N 59°54' E 010°45'0 0.0
2018-Jul-14 12:29N 59°54' E 010°45'0 0.0
2018-Jul-14 11:59N 59°54' E 010°45'0 0.0
2018-Jul-14 11:29N 59°54' E 010°45'0 0.0
2018-Jul-14 10:59N 59°54' E 010°45'0 0.0
2018-Jul-14 10:29N 59°54' E 010°45'0 0.0
2018-Jul-14 09:59N 59°54' E 010°45'0 0.0
2018-Jul-14 09:29N 59°54' E 010°45'0 0.0
2018-Jul-14 08:59N 59°54' E 010°45'0 0.0
2018-Jul-14 08:29N 59°54' E 010°45'0 0.0
2018-Jul-14 07:59N 59°54' E 010°45'0 0.8
2018-Jul-14 07:30N 59°54' E 010°44'713.4
2018-Jul-14 07:00N 59°49' E 010°35'714.5
2018-Jul-14 06:30N 59°42' E 010°36'714.0
2018-Jul-14 06:01N 59°35' E 010°38'815.5
2018-Jul-14 05:31N 59°28' E 010°34'815.9
2018-Jul-14 05:01N 59°20' E 010°36'816.1
2018-Jul-14 04:31N 59°12' E 010°39'816.1
2018-Jul-14 04:01N 59°04' E 010°41'815.9
2018-Jul-14 03:30N 58°56' E 010°44'815.7
2018-Jul-14 03:00N 58°48' E 010°46'815.8
2018-Jul-14 02:31N 58°40' E 010°49'816.1
2018-Jul-14 02:01N 58°33' E 010°51'816.2
2018-Jul-14 01:30N 58°25' E 010°56'816.5
2018-Jul-14 01:00N 58°17' E 011°02'817.0
2018-Jul-14 00:31N 58°09' E 011°07'816.5
2018-Jul-14 00:00N 58°01' E 011°12'816.2
2018-Jul-13 23:31N 57°53' E 011°17'816.5
2018-Jul-13 23:01N 57°46' E 011°22'816.9
2018-Jul-13 22:30N 57°38' E 011°28'816.8
2018-Jul-13 22:00N 57°30' E 011°34'816.5
2018-Jul-13 21:30N 57°23' E 011°43'816.5
2018-Jul-13 21:00N 57°16' E 011°51'816.4
2018-Jul-13 20:30N 57°09' E 011°56'816.0
2018-Jul-13 20:00N 57°01' E 012°03'815.9
2018-Jul-13 19:31N 56°54' E 012°08'815.9
2018-Jul-13 19:00N 56°46' E 012°12'815.8
2018-Jul-13 18:31N 56°39' E 012°15'1115.6
2018-Jul-13 17:50N 56°28' E 012°20'615.6
2018-Jul-13 17:25N 56°22' E 012°23'915.8
2018-Jul-13 16:50N 56°13' E 012°27'816.2
2018-Jul-13 16:20N 56°06' E 012°34'516.1
2018-Jul-13 16:01N 56°02' E 012°40'815.3
2018-Jul-13 15:30N 55°55' E 012°44'815.3
2018-Jul-13 15:01N 55°47' E 012°42'612.0
2018-Jul-13 14:30N 55°42' E 012°36'0 0.3
2018-Jul-13 13:28N 55°42' E 012°36'0 0.0
2018-Jul-13 12:55N 55°42' E 012°36'0 0.0
2018-Jul-13 12:28N 55°42' E 012°36'0 0.0
2018-Jul-13 11:58N 55°42' E 012°36'0 0.0
2018-Jul-13 11:28N 55°42' E 012°36'0 0.0
2018-Jul-13 10:52N 55°42' E 012°36'0 0.0
2018-Jul-13 10:28N 55°42' E 012°36'0 0.0
2018-Jul-13 09:58N 55°42' E 012°36'0 0.0
2018-Jul-13 09:28N 55°42' E 012°36'0 0.0
2018-Jul-13 08:58N 55°42' E 012°36'0 0.0
2018-Jul-13 08:28N 55°42' E 012°36'0 0.8
2018-Jul-13 08:01N 55°42' E 012°36'611.2
2018-Jul-13 07:31N 55°47' E 012°42'816.1
2018-Jul-13 07:01N 55°55' E 012°39'816.7
2018-Jul-13 06:30N 56°03' E 012°38'816.2
2018-Jul-13 06:01N 56°10' E 012°29'917.2
2018-Jul-13 05:31N 56°18' E 012°23'917.9
2018-Jul-13 05:00N 56°26' E 012°18'918.2
2018-Jul-13 04:30N 56°35' E 012°13'918.1
2018-Jul-13 04:00N 56°43' E 012°08'918.2
2018-Jul-13 03:31N 56°52' E 012°03'917.6
2018-Jul-13 02:59N 57°01' E 011°59'817.5
2018-Jul-13 02:31N 57°09' E 011°54'917.5
2018-Jul-13 02:00N 57°17' E 011°49'917.3
2018-Jul-13 01:31N 57°25' E 011°41'917.4
2018-Jul-13 01:01N 57°33' E 011°34'917.2
2018-Jul-13 00:31N 57°40' E 011°27'917.3
2018-Jul-13 00:00N 57°48' E 011°20'917.7
2018-Jul-12 23:31N 57°56' E 011°14'917.3
2018-Jul-12 23:01N 58°04' E 011°08'917.2
2018-Jul-12 22:31N 58°13' E 011°04'917.3
2018-Jul-12 22:01N 58°21' E 010°59'4 7.2
2018-Jul-12 21:30N 58°24' E 010°57'2 4.2
2018-Jul-12 21:00N 58°26' E 010°56'2 4.0
2018-Jul-12 20:30N 58°28' E 010°55'510.3
2018-Jul-12 20:00N 58°34' E 010°53'611.7
2018-Jul-12 19:31N 58°39' E 010°51'917.1
2018-Jul-12 19:00N 58°48' E 010°47'917.3
2018-Jul-12 18:30N 58°56' E 010°44'917.4
2018-Jul-12 18:00N 59°05' E 010°41'917.4
2018-Jul-12 17:30N 59°13' E 010°38'917.4
2018-Jul-12 17:00N 59°22' E 010°35'816.8
2018-Jul-12 16:30N 59°30' E 010°34'816.6
2018-Jul-12 16:00N 59°38' E 010°37'714.4
2018-Jul-12 15:30N 59°45' E 010°33'816.5
2018-Jul-12 15:01N 59°53' E 010°39'3 6.1
2018-Jul-12 14:30N 59°54' E 010°45'0 0.0
2018-Jul-12 13:59N 59°54' E 010°45'0 0.0
2018-Jul-12 13:30N 59°54' E 010°45'0 0.0
2018-Jul-12 13:00N 59°54' E 010°45'0 0.0
2018-Jul-12 12:30N 59°54' E 010°45'0 0.0
2018-Jul-12 12:00N 59°54' E 010°45'0 0.0
2018-Jul-12 11:27N 59°54' E 010°45'0 0.0
2018-Jul-12 11:00N 59°54' E 010°45'0 0.0
2018-Jul-12 10:30N 59°54' E 010°45'0 0.0
2018-Jul-12 10:00N 59°54' E 010°45'0 0.0
2018-Jul-12 09:30N 59°54' E 010°45'0 0.0
2018-Jul-12 09:00N 59°54' E 010°45'0 0.0
2018-Jul-12 08:30N 59°54' E 010°45'0 0.0
2018-Jul-12 08:00N 59°54' E 010°45'0 0.7
2018-Jul-12 07:30N 59°54' E 010°44'714.3
2018-Jul-12 07:00N 59°49' E 010°35'  
Track history (hours):
 
Tides and Currents Weather Stations Pressure Air Temp Water Temp Dewpoint Dewpoint Depression Visibility Wind Speed Wind Dir Waves Ship Positions

Pearl Of Scandinavia

Last reported at 2018-Jul-22 06:30 UTC. Time now 2018-Jul-22 06:55 UTC.
Position N 59°41' E 010°36'.

Length 176.4 m; beam 34 m; draft 6.215 m.

Type: Ship. MMSI: 219945000.

Date/timePositionNaut miles runAvg speedWind from/ knotsBaromVisibWave heightAir tempDewpointWater temp
2018-Jul-22 06:30N 59°41' E 010°36'713.9
2018-Jul-22 06:00N 59°35' E 010°38'815.5
2018-Jul-22 05:30N 59°27' E 010°34'815.4
2018-Jul-22 05:00N 59°19' E 010°36'816.2
2018-Jul-22 04:30N 59°11' E 010°39'816.4
2018-Jul-22 04:00N 59°03' E 010°41'815.9
2018-Jul-22 03:30N 58°56' E 010°44'815.9
2018-Jul-22 03:00N 58°48' E 010°46'816.1
2018-Jul-22 02:30N 58°40' E 010°49'816.4
2018-Jul-22 02:00N 58°32' E 010°53'816.4
2018-Jul-22 01:29N 58°24' E 010°58'916.4
2018-Jul-22 00:57N 58°15' E 011°03'1316.8
2018-Jul-22 00:12N 58°04' E 011°12'316.4
2018-Jul-22 00:00N 58°01' E 011°14'816.2
2018-Jul-21 23:30N 57°53' E 011°18'816.2
2018-Jul-21 23:00N 57°45' E 011°22'815.3
2018-Jul-21 22:30N 57°38' E 011°27'816.5
2018-Jul-21 22:00N 57°30' E 011°33'816.6
2018-Jul-21 21:30N 57°23' E 011°41'816.8
2018-Jul-21 21:00N 57°16' E 011°49'917.0
2018-Jul-21 20:30N 57°09' E 011°57'6316.7
2018-Jul-21 16:43N 56°08' E 012°32'416.7
2018-Jul-21 16:30N 56°05' E 012°36'815.9
2018-Jul-21 16:00N 55°58' E 012°42'815.3
2018-Jul-21 15:30N 55°51' E 012°44'714.6
2018-Jul-21 15:00N 55°44' E 012°40'3 5.6
2018-Jul-21 14:30N 55°42' E 012°36'0 0.0
2018-Jul-21 13:30N 55°42' E 012°36'0 0.0
2018-Jul-21 13:00N 55°42' E 012°36'0 0.0
2018-Jul-21 12:27N 55°42' E 012°36'0 0.0
2018-Jul-21 11:54N 55°42' E 012°36'0 0.0
2018-Jul-21 11:30N 55°42' E 012°36'0 0.0
2018-Jul-21 10:57N 55°42' E 012°36'0 0.0
2018-Jul-21 10:27N 55°42' E 012°36'0 0.0
2018-Jul-21 09:51N 55°42' E 012°36'0 0.0
2018-Jul-21 09:30N 55°42' E 012°36'0 0.0
2018-Jul-21 08:54N 55°42' E 012°36'0 0.0
2018-Jul-21 08:30N 55°42' E 012°36'0 0.0
2018-Jul-21 08:00N 55°42' E 012°36'0 0.7
2018-Jul-21 07:31N 55°42' E 012°36'612.2
2018-Jul-21 07:00N 55°48' E 012°42'815.3
2018-Jul-21 06:30N 55°55' E 012°39'815.8
2018-Jul-21 06:00N 56°03' E 012°39'816.3
2018-Jul-21 05:30N 56°09' E 012°29'6616.7
2018-Jul-21 01:34N 57°12' E 011°54'117.5
2018-Jul-21 01:29N 57°14' E 011°53'817.5
2018-Jul-21 01:00N 57°20' E 011°45'917.3
2018-Jul-21 00:31N 57°28' E 011°36'916.9
2018-Jul-21 00:00N 57°35' E 011°29'917.8
2018-Jul-20 23:30N 57°44' E 011°23'917.4
2018-Jul-20 23:00N 57°52' E 011°17'816.0
2018-Jul-20 22:30N 57°59' E 011°11'815.1
2018-Jul-20 22:00N 58°06' E 011°07'714.9
2018-Jul-20 21:30N 58°14' E 011°03'714.8
2018-Jul-20 21:00N 58°21' E 010°59'714.9
2018-Jul-20 20:30N 58°28' E 010°55'714.7
2018-Jul-20 20:00N 58°35' E 010°51'714.7
2018-Jul-20 19:30N 58°42' E 010°47'815.4
2018-Jul-20 19:00N 58°50' E 010°45'815.7
2018-Jul-20 18:30N 58°57' E 010°42'815.9
2018-Jul-20 18:00N 59°05' E 010°40'815.6
2018-Jul-20 17:30N 59°13' E 010°37'815.6
2018-Jul-20 17:00N 59°20' E 010°35'714.5
2018-Jul-20 16:31N 59°28' E 010°34'815.4
2018-Jul-20 16:01N 59°35' E 010°38'714.3
2018-Jul-20 15:30N 59°42' E 010°35'715.1
2018-Jul-20 15:00N 59°50' E 010°34'713.3
2018-Jul-20 14:30N 59°54' E 010°44'0 0.3
2018-Jul-20 14:00N 59°54' E 010°45'0 0.0
2018-Jul-20 13:30N 59°54' E 010°45'0 0.0
2018-Jul-20 13:00N 59°54' E 010°45'0 0.0
2018-Jul-20 12:30N 59°54' E 010°45'0 0.0
2018-Jul-20 12:00N 59°54' E 010°45'0 0.0
2018-Jul-20 11:30N 59°54' E 010°45'0 0.0
2018-Jul-20 11:00N 59°54' E 010°45'0 0.0
2018-Jul-20 10:30N 59°54' E 010°45'0 0.0
2018-Jul-20 10:00N 59°54' E 010°45'0 0.0
2018-Jul-20 09:30N 59°54' E 010°45'0 0.0
2018-Jul-20 09:00N 59°54' E 010°45'0 0.0
2018-Jul-20 08:30N 59°54' E 010°45'0 0.0
2018-Jul-20 08:00N 59°54' E 010°45'0 0.8
2018-Jul-20 07:30N 59°54' E 010°44'714.1
2018-Jul-20 07:00N 59°49' E 010°35'714.6
2018-Jul-20 06:30N 59°41' E 010°36'714.2
2018-Jul-20 06:01N 59°34' E 010°38'815.4
2018-Jul-20 05:30N 59°27' E 010°34'815.8
2018-Jul-20 05:01N 59°19' E 010°36'816.0
2018-Jul-20 04:31N 59°11' E 010°39'816.1
2018-Jul-20 04:00N 59°03' E 010°41'815.6
2018-Jul-20 03:31N 58°56' E 010°43'815.3
2018-Jul-20 03:00N 58°48' E 010°47'815.7
2018-Jul-20 02:30N 58°40' E 010°50'816.2
2018-Jul-20 02:01N 58°33' E 010°53'816.6
2018-Jul-20 01:31N 58°25' E 010°57'816.3
2018-Jul-20 01:00N 58°17' E 011°02'816.7
2018-Jul-20 00:30N 58°09' E 011°07'917.5
2018-Jul-20 00:00N 58°00' E 011°12'817.0
2018-Jul-19 23:31N 57°52' E 011°17'816.0
2018-Jul-19 23:01N 57°45' E 011°22'816.1
2018-Jul-19 22:31N 57°38' E 011°29'816.6
2018-Jul-19 22:01N 57°30' E 011°36'816.1
2018-Jul-19 21:31N 57°23' E 011°42'816.2
2018-Jul-19 21:01N 57°16' E 011°50'816.1
2018-Jul-19 20:30N 57°09' E 011°56'916.4
2018-Jul-19 19:57N 57°00' E 012°03'916.3
2018-Jul-19 19:25N 56°52' E 012°09'916.3
2018-Jul-19 18:51N 56°44' E 012°15'716.3
2018-Jul-19 18:27N 56°37' E 012°18'716.0
2018-Jul-19 17:59N 56°30' E 012°19'816.1
2018-Jul-19 17:29N 56°22' E 012°23'815.8
2018-Jul-19 16:59N 56°15' E 012°26'815.8
2018-Jul-19 16:28N 56°07' E 012°33'715.1
2018-Jul-19 16:01N 56°01' E 012°40'714.8
2018-Jul-19 15:30N 55°54' E 012°44'714.5
2018-Jul-19 15:01N 55°47' E 012°42'612.2
2018-Jul-19 14:30N 55°42' E 012°36'0 0.2
2018-Jul-19 13:27N 55°42' E 012°36'0 0.0
2018-Jul-19 13:00N 55°42' E 012°36'0 0.0
2018-Jul-19 12:30N 55°42' E 012°36'0 0.0
2018-Jul-19 12:00N 55°42' E 012°36'0 0.0
2018-Jul-19 11:30N 55°42' E 012°36'0 0.0
2018-Jul-19 11:00N 55°42' E 012°36'0 0.0
2018-Jul-19 10:30N 55°42' E 012°36'0 0.0
2018-Jul-19 10:00N 55°42' E 012°36'0 0.0
2018-Jul-19 09:30N 55°42' E 012°36'0 0.0
2018-Jul-19 09:00N 55°42' E 012°36'0 0.0
2018-Jul-19 08:30N 55°42' E 012°36'0 0.0
2018-Jul-19 08:00N 55°42' E 012°36'0 0.6
2018-Jul-19 07:30N 55°42' E 012°36'612.2
2018-Jul-19 07:00N 55°48' E 012°42'815.1
2018-Jul-19 06:30N 55°55' E 012°39'815.7
2018-Jul-19 06:00N 56°03' E 012°39'816.3
2018-Jul-19 05:30N 56°09' E 012°30'6816.5
2018-Jul-19 01:22N 57°14' E 011°51'616.9
2018-Jul-19 01:00N 57°19' E 011°45'917.1
2018-Jul-19 00:30N 57°26' E 011°36'816.8
2018-Jul-19 00:00N 57°34' E 011°29'917.2
2018-Jul-18 23:31N 57°42' E 011°24'917.4
2018-Jul-18 23:00N 57°50' E 011°18'816.7
2018-Jul-18 22:30N 57°58' E 011°12'816.2
2018-Jul-18 22:00N 58°05' E 011°08'815.7
2018-Jul-18 21:30N 58°13' E 011°04'815.7
2018-Jul-18 21:00N 58°20' E 010°59'815.9
2018-Jul-18 20:30N 58°28' E 010°55'816.0
2018-Jul-18 20:00N 58°36' E 010°51'816.0
2018-Jul-18 19:31N 58°43' E 010°47'816.3
2018-Jul-18 19:00N 58°52' E 010°44'816.5
2018-Jul-18 18:30N 58°60' E 010°42'815.8
2018-Jul-18 18:00N 59°07' E 010°39'815.7
2018-Jul-18 17:30N 59°15' E 010°37'816.1
2018-Jul-18 17:01N 59°23' E 010°34'816.0
2018-Jul-18 16:30N 59°31' E 010°35'815.6
2018-Jul-18 16:00N 59°39' E 010°37'714.1
2018-Jul-18 15:30N 59°46' E 010°33'815.5
2018-Jul-18 15:01N 59°53' E 010°39'3 6.1
2018-Jul-18 14:29N 59°54' E 010°45'0 0.0
2018-Jul-18 13:29N 59°54' E 010°45'0 0.0
2018-Jul-18 12:59N 59°54' E 010°45'0 0.0
2018-Jul-18 12:29N 59°54' E 010°45'0 0.0
2018-Jul-18 11:59N 59°54' E 010°45'0 0.0
2018-Jul-18 11:29N 59°54' E 010°45'0 0.0
2018-Jul-18 10:29N 59°54' E 010°45'0 0.0
2018-Jul-18 09:59N 59°54' E 010°45'0 0.0
2018-Jul-18 09:29N 59°54' E 010°45'0 0.0
2018-Jul-18 08:59N 59°54' E 010°45'0 0.0
2018-Jul-18 08:29N 59°54' E 010°45'0 0.0
2018-Jul-18 07:59N 59°54' E 010°45'0 0.8
2018-Jul-18 07:30N 59°54' E 010°44'713.8
2018-Jul-18 07:00N 59°49' E 010°35'714.7
2018-Jul-18 06:30N 59°42' E 010°36'714.6
2018-Jul-18 06:00N 59°34' E 010°38'816.1
2018-Jul-18 05:30N 59°27' E 010°34'816.5
2018-Jul-18 05:00N 59°19' E 010°37'816.5
2018-Jul-18 04:30N 59°10' E 010°40'816.5
2018-Jul-18 04:00N 59°02' E 010°40'816.5
2018-Jul-18 03:30N 58°54' E 010°40'816.3
2018-Jul-18 03:00N 58°46' E 010°45'816.6
2018-Jul-18 02:31N 58°38' E 010°48'816.5
2018-Jul-18 02:00N 58°30' E 010°53'816.8
2018-Jul-18 01:30N 58°22' E 010°58'917.4
2018-Jul-18 01:00N 58°14' E 011°03'917.8
2018-Jul-18 00:30N 58°06' E 011°08'918.1
2018-Jul-18 00:01N 57°57' E 011°14'917.2
2018-Jul-17 23:30N 57°49' E 011°19'816.3
2018-Jul-17 23:00N 57°41' E 011°25'816.4
2018-Jul-17 22:30N 57°34' E 011°30'816.2
2018-Jul-17 22:00N 57°26' E 011°37'816.3
2018-Jul-17 21:30N 57°19' E 011°45'815.9
2018-Jul-17 21:01N 57°13' E 011°52'815.9
2018-Jul-17 20:31N 57°05' E 011°59'816.1
2018-Jul-17 20:01N 56°58' E 012°05'815.9
2018-Jul-17 19:31N 56°50' E 012°08'4515.9
2018-Jul-17 16:41N 56°07' E 012°33'317.7
2018-Jul-17 16:30N 56°05' E 012°36'815.8
2018-Jul-17 16:01N 55°58' E 012°42'815.5
2018-Jul-17 15:30N 55°50' E 012°44'714.4
2018-Jul-17 15:00N 55°44' E 012°39'2 4.7
2018-Jul-17 14:30N 55°42' E 012°36'0 0.0
2018-Jul-17 14:00N 55°42' E 012°36'0 0.0
2018-Jul-17 13:29N 55°42' E 012°36'0 0.0
2018-Jul-17 12:59N 55°42' E 012°36'0 0.0
2018-Jul-17 12:29N 55°42' E 012°36'0 0.0
2018-Jul-17 11:53N 55°42' E 012°36'0 0.0
2018-Jul-17 11:29N 55°42' E 012°36'0 0.0
2018-Jul-17 10:59N 55°42' E 012°36'0 0.0
2018-Jul-17 10:29N 55°42' E 012°36'0 0.0
2018-Jul-17 09:59N 55°42' E 012°36'0 0.0
2018-Jul-17 09:29N 55°42' E 012°36'0 0.0
2018-Jul-17 08:59N 55°42' E 012°36'0 0.0
2018-Jul-17 08:29N 55°42' E 012°36'0 0.0
2018-Jul-17 07:59N 55°42' E 012°36'0 0.7
2018-Jul-17 07:30N 55°42' E 012°36'612.1
2018-Jul-17 07:00N 55°48' E 012°42'815.2
2018-Jul-17 06:30N 55°55' E 012°39'815.2
2018-Jul-17 06:00N 56°03' E 012°39'714.5
2018-Jul-17 05:30N 56°08' E 012°30'815.4
2018-Jul-17 05:00N 56°15' E 012°25'815.3
2018-Jul-17 04:30N 56°22' E 012°20'815.7
2018-Jul-17 04:00N 56°30' E 012°16'816.2
2018-Jul-17 03:30N 56°37' E 012°11'816.3
2018-Jul-17 03:00N 56°45' E 012°08'816.4
2018-Jul-17 02:30N 56°53' E 012°03'816.6
2018-Jul-17 02:00N 57°01' E 011°59'816.6
2018-Jul-17 01:30N 57°09' E 011°54'816.6
2018-Jul-17 01:00N 57°17' E 011°49'816.5
2018-Jul-17 00:30N 57°24' E 011°42'1717.3
2018-Jul-16 23:30N 57°40' E 011°27'918.2
2018-Jul-16 23:00N 57°48' E 011°20'917.6
2018-Jul-16 22:30N 57°56' E 011°13'917.0
2018-Jul-16 22:00N 58°04' E 011°08'816.4
2018-Jul-16 21:30N 58°12' E 011°03'816.5
2018-Jul-16 21:00N 58°19' E 010°58'816.5
2018-Jul-16 20:30N 58°27' E 010°54'816.3
2018-Jul-16 20:00N 58°35' E 010°50'816.4
2018-Jul-16 19:30N 58°43' E 010°47'816.7
2018-Jul-16 19:00N 58°51' E 010°44'917.1
2018-Jul-16 18:30N 58°60' E 010°42'917.1
2018-Jul-16 18:00N 59°08' E 010°39'917.1
2018-Jul-16 17:30N 59°17' E 010°36'816.6
2018-Jul-16 17:00N 59°25' E 010°33'816.7
2018-Jul-16 16:30N 59°33' E 010°37'815.2
2018-Jul-16 16:01N 59°41' E 010°37'815.1
2018-Jul-16 15:31N 59°48' E 010°34'714.9
2018-Jul-16 15:00N 59°54' E 010°43'1 2.1
2018-Jul-16 14:30N 59°54' E 010°45'0 0.0
2018-Jul-16 14:00N 59°54' E 010°45'0 0.0
2018-Jul-16 13:30N 59°54' E 010°45'0 0.0
2018-Jul-16 13:00N 59°54' E 010°45'0 0.0
2018-Jul-16 12:30N 59°54' E 010°45'0 0.0
2018-Jul-16 12:00N 59°54' E 010°45'0 0.0
2018-Jul-16 11:30N 59°54' E 010°45'0 0.0
2018-Jul-16 11:00N 59°54' E 010°45'0 0.0
2018-Jul-16 10:30N 59°54' E 010°45'0 0.0
2018-Jul-16 10:00N 59°54' E 010°45'0 0.0
2018-Jul-16 09:30N 59°54' E 010°45'0 0.0
2018-Jul-16 09:00N 59°54' E 010°45'0 0.0
2018-Jul-16 08:30N 59°54' E 010°45'0 0.0
2018-Jul-16 08:00N 59°54' E 010°45'0 0.6
2018-Jul-16 07:30N 59°54' E 010°44'713.6
2018-Jul-16 07:00N 59°49' E 010°35'714.9
2018-Jul-16 06:30N 59°42' E 010°36'714.6
2018-Jul-16 06:00N 59°34' E 010°38'815.7
2018-Jul-16 05:30N 59°27' E 010°34'815.8
2018-Jul-16 05:00N 59°19' E 010°36'816.7
2018-Jul-16 04:30N 59°11' E 010°39'816.6
2018-Jul-16 04:00N 59°03' E 010°39'816.7
2018-Jul-16 03:30N 58°54' E 010°38'917.0
2018-Jul-16 03:00N 58°46' E 010°37'917.2
2018-Jul-16 02:30N 58°37' E 010°39'816.9
2018-Jul-16 02:00N 58°29' E 010°40'917.3
2018-Jul-16 01:30N 58°20' E 010°44'917.2
2018-Jul-16 01:00N 58°12' E 010°50'816.9
2018-Jul-16 00:30N 58°04' E 010°55'917.2
2018-Jul-16 00:00N 57°56' E 011°01'816.4
2018-Jul-15 23:30N 57°49' E 011°06'815.9
2018-Jul-15 23:00N 57°41' E 011°12'816.5
2018-Jul-15 22:30N 57°34' E 011°20'816.5
2018-Jul-15 22:00N 57°28' E 011°29'816.4
2018-Jul-15 21:30N 57°20' E 011°33'816.2
2018-Jul-15 21:00N 57°12' E 011°38'816.2
2018-Jul-15 20:30N 57°05' E 011°43'816.3
2018-Jul-15 20:00N 56°57' E 011°48'915.9
2018-Jul-15 19:27N 56°49' E 011°55'715.4
2018-Jul-15 19:00N 56°43' E 012°02'815.5
2018-Jul-15 18:30N 56°36' E 012°10'815.8
2018-Jul-15 17:59N 56°29' E 012°16'815.8
2018-Jul-15 17:29N 56°22' E 012°21'1615.6
2018-Jul-15 16:29N 56°07' E 012°33'715.2
2018-Jul-15 16:00N 56°02' E 012°40'815.2
2018-Jul-15 15:30N 55°54' E 012°44'714.7
2018-Jul-15 15:00N 55°47' E 012°42'611.6
2018-Jul-15 14:31N 55°42' E 012°36'0 0.6
2018-Jul-15 14:01N 55°42' E 012°36'0 0.0
2018-Jul-15 13:27N 55°42' E 012°36'0 0.0
2018-Jul-15 12:57N 55°42' E 012°36'0 0.0
2018-Jul-15 12:27N 55°42' E 012°36'0 0.0
2018-Jul-15 11:57N 55°42' E 012°36'0 0.0
2018-Jul-15 11:27N 55°42' E 012°36'0 0.0
2018-Jul-15 10:57N 55°42' E 012°36'0 0.0
2018-Jul-15 10:27N 55°42' E 012°36'0 0.0
2018-Jul-15 09:57N 55°42' E 012°36'0 0.0
2018-Jul-15 09:27N 55°42' E 012°36'0 0.0
2018-Jul-15 08:57N 55°42' E 012°36'0 0.0
2018-Jul-15 08:27N 55°42' E 012°36'0 0.0
2018-Jul-15 07:57N 55°42' E 012°36'0 0.7
2018-Jul-15 07:31N 55°42' E 012°36'611.7
2018-Jul-15 07:00N 55°47' E 012°42'815.2
2018-Jul-15 06:30N 55°55' E 012°39'815.6
2018-Jul-15 06:00N 56°02' E 012°39'714.6
2018-Jul-15 05:30N 56°08' E 012°30'1115.7
2018-Jul-15 04:49N 56°18' E 012°23'616.1
2018-Jul-15 04:28N 56°23' E 012°20'5516.6
2018-Jul-15 01:08N 57°16' E 011°49'216.6
2018-Jul-15 01:00N 57°18' E 011°47'816.9
2018-Jul-15 00:30N 57°25' E 011°40'917.3
2018-Jul-15 00:00N 57°32' E 011°32'917.0
2018-Jul-14 23:30N 57°40' E 011°25'816.9
2018-Jul-14 23:00N 57°48' E 011°19'816.4
2018-Jul-14 22:30N 57°56' E 011°13'815.6
2018-Jul-14 22:00N 58°03' E 011°09'815.1
2018-Jul-14 21:30N 58°10' E 011°04'815.6
2018-Jul-14 21:00N 58°18' E 010°60'814.9
2018-Jul-14 20:30N 58°25' E 010°57'815.1
2018-Jul-14 20:00N 58°32' E 010°53'815.3
2018-Jul-14 19:30N 58°39' E 010°49'815.6
2018-Jul-14 19:00N 58°47' E 010°46'816.2
2018-Jul-14 18:30N 58°55' E 010°43'816.7
2018-Jul-14 18:00N 59°03' E 010°40'816.4
2018-Jul-14 17:30N 59°11' E 010°38'816.1
2018-Jul-14 17:00N 59°19' E 010°35'815.6
2018-Jul-14 16:30N 59°27' E 010°33'815.9
2018-Jul-14 16:00N 59°35' E 010°38'714.3
2018-Jul-14 15:30N 59°42' E 010°35'714.9
2018-Jul-14 15:00N 59°49' E 010°34'714.0
2018-Jul-14 14:31N 59°54' E 010°44'0 0.3
2018-Jul-14 13:29N 59°54' E 010°45'0 0.0
2018-Jul-14 12:59N 59°54' E 010°45'0 0.0
2018-Jul-14 12:29N 59°54' E 010°45'0 0.0
2018-Jul-14 11:59N 59°54' E 010°45'0 0.0
2018-Jul-14 11:29N 59°54' E 010°45'0 0.0
2018-Jul-14 10:59N 59°54' E 010°45'0 0.0
2018-Jul-14 10:29N 59°54' E 010°45'0 0.0
2018-Jul-14 09:59N 59°54' E 010°45'0 0.0
2018-Jul-14 09:29N 59°54' E 010°45'0 0.0
2018-Jul-14 08:59N 59°54' E 010°45'0 0.0
2018-Jul-14 08:29N 59°54' E 010°45'0 0.0
2018-Jul-14 07:59N 59°54' E 010°45'0 0.8
2018-Jul-14 07:30N 59°54' E 010°44'713.4
2018-Jul-14 07:00N 59°49' E 010°35'714.5
2018-Jul-14 06:30N 59°42' E 010°36'714.0
2018-Jul-14 06:01N 59°35' E 010°38'815.5
2018-Jul-14 05:31N 59°28' E 010°34'815.9
2018-Jul-14 05:01N 59°20' E 010°36'816.1
2018-Jul-14 04:31N 59°12' E 010°39'816.1
2018-Jul-14 04:01N 59°04' E 010°41'815.9
2018-Jul-14 03:30N 58°56' E 010°44'815.7
2018-Jul-14 03:00N 58°48' E 010°46'815.8
2018-Jul-14 02:31N 58°40' E 010°49'816.1
2018-Jul-14 02:01N 58°33' E 010°51'816.2
2018-Jul-14 01:30N 58°25' E 010°56'816.5
2018-Jul-14 01:00N 58°17' E 011°02'817.0
2018-Jul-14 00:31N 58°09' E 011°07'816.5
2018-Jul-14 00:00N 58°01' E 011°12'816.2
2018-Jul-13 23:31N 57°53' E 011°17'816.5
2018-Jul-13 23:01N 57°46' E 011°22'816.9
2018-Jul-13 22:30N 57°38' E 011°28'816.8
2018-Jul-13 22:00N 57°30' E 011°34'816.5
2018-Jul-13 21:30N 57°23' E 011°43'816.5
2018-Jul-13 21:00N 57°16' E 011°51'816.4
2018-Jul-13 20:30N 57°09' E 011°56'816.0
2018-Jul-13 20:00N 57°01' E 012°03'815.9
2018-Jul-13 19:31N 56°54' E 012°08'815.9
2018-Jul-13 19:00N 56°46' E 012°12'815.8
2018-Jul-13 18:31N 56°39' E 012°15'1115.6
2018-Jul-13 17:50N 56°28' E 012°20'615.6
2018-Jul-13 17:25N 56°22' E 012°23'915.8
2018-Jul-13 16:50N 56°13' E 012°27'816.2
2018-Jul-13 16:20N 56°06' E 012°34'516.1
2018-Jul-13 16:01N 56°02' E 012°40'815.3
2018-Jul-13 15:30N 55°55' E 012°44'815.3
2018-Jul-13 15:01N 55°47' E 012°42'612.0
2018-Jul-13 14:30N 55°42' E 012°36'0 0.3
2018-Jul-13 13:28N 55°42' E 012°36'0 0.0
2018-Jul-13 12:55N 55°42' E 012°36'0 0.0
2018-Jul-13 12:28N 55°42' E 012°36'0 0.0
2018-Jul-13 11:58N 55°42' E 012°36'0 0.0
2018-Jul-13 11:28N 55°42' E 012°36'0 0.0
2018-Jul-13 10:52N 55°42' E 012°36'0 0.0
2018-Jul-13 10:28N 55°42' E 012°36'0 0.0
2018-Jul-13 09:58N 55°42' E 012°36'0 0.0
2018-Jul-13 09:28N 55°42' E 012°36'0 0.0
2018-Jul-13 08:58N 55°42' E 012°36'0 0.0
2018-Jul-13 08:28N 55°42' E 012°36'0 0.8
2018-Jul-13 08:01N 55°42' E 012°36'611.2
2018-Jul-13 07:31N 55°47' E 012°42'816.1
2018-Jul-13 07:01N 55°55' E 012°39'816.7
2018-Jul-13 06:30N 56°03' E 012°38'816.2
2018-Jul-13 06:01N 56°10' E 012°29'917.2
2018-Jul-13 05:31N 56°18' E 012°23'917.9
2018-Jul-13 05:00N 56°26' E 012°18'918.2
2018-Jul-13 04:30N 56°35' E 012°13'918.1
2018-Jul-13 04:00N 56°43' E 012°08'918.2
2018-Jul-13 03:31N 56°52' E 012°03'917.6
2018-Jul-13 02:59N 57°01' E 011°59'817.5
2018-Jul-13 02:31N 57°09' E 011°54'917.5
2018-Jul-13 02:00N 57°17' E 011°49'917.3
2018-Jul-13 01:31N 57°25' E 011°41'917.4
2018-Jul-13 01:01N 57°33' E 011°34'917.2
2018-Jul-13 00:31N 57°40' E 011°27'917.3
2018-Jul-13 00:00N 57°48' E 011°20'917.7
2018-Jul-12 23:31N 57°56' E 011°14'917.3
2018-Jul-12 23:01N 58°04' E 011°08'917.2
2018-Jul-12 22:31N 58°13' E 011°04'917.3
2018-Jul-12 22:01N 58°21' E 010°59'4 7.2
2018-Jul-12 21:30N 58°24' E 010°57'2 4.2
2018-Jul-12 21:00N 58°26' E 010°56'2 4.0
2018-Jul-12 20:30N 58°28' E 010°55'510.3
2018-Jul-12 20:00N 58°34' E 010°53'611.7
2018-Jul-12 19:31N 58°39' E 010°51'917.1
2018-Jul-12 19:00N 58°48' E 010°47'917.3
2018-Jul-12 18:30N 58°56' E 010°44'917.4
2018-Jul-12 18:00N 59°05' E 010°41'917.4
2018-Jul-12 17:30N 59°13' E 010°38'917.4
2018-Jul-12 17:00N 59°22' E 010°35'816.8
2018-Jul-12 16:30N 59°30' E 010°34'816.6
2018-Jul-12 16:00N 59°38' E 010°37'714.4
2018-Jul-12 15:30N 59°45' E 010°33'816.5
2018-Jul-12 15:01N 59°53' E 010°39'3 6.1
2018-Jul-12 14:30N 59°54' E 010°45'0 0.0
2018-Jul-12 13:59N 59°54' E 010°45'0 0.0
2018-Jul-12 13:30N 59°54' E 010°45'0 0.0
2018-Jul-12 13:00N 59°54' E 010°45'0 0.0
2018-Jul-12 12:30N 59°54' E 010°45'0 0.0
2018-Jul-12 12:00N 59°54' E 010°45'0 0.0
2018-Jul-12 11:27N 59°54' E 010°45'0 0.0
2018-Jul-12 11:00N 59°54' E 010°45'0 0.0
2018-Jul-12 10:30N 59°54' E 010°45'0 0.0
2018-Jul-12 10:00N 59°54' E 010°45'0 0.0
2018-Jul-12 09:30N 59°54' E 010°45'0 0.0
2018-Jul-12 09:00N 59°54' E 010°45'0 0.0
2018-Jul-12 08:30N 59°54' E 010°45'0 0.0
2018-Jul-12 08:00N 59°54' E 010°45'0 0.7
2018-Jul-12 07:30N 59°54' E 010°44'714.3
2018-Jul-12 07:00N 59°49' E 010°35'  

Dump ship's entire track history